Time;durP1;ratioP1;P1;durP2;ratioP2;P2;SDS_P1;SDS_P2;PMS_P1;PMS_P2;Temp;Humidity;BMP_temperature;BMP_pressure;BME280_temperature;BME280_humidity;BME280_pressure;Samples;Min_cycle;Max_cycle;Signal;HPM_P1;HPM_P2
2022/06/11 00:01:09;;;;;;;1.60;0.70;;;22.90;67.70;;;;;;5052371;28;20039;-48
2022/06/11 00:03:35;;;;;;;1.80;0.77;;;;;;;;;;5052076;28;20072;-47
2022/06/11 00:06:03;;;;;;;1.63;0.60;;;;;;;;;;5052214;28;20033;-48
2022/06/11 00:08:29;;;;;;;2.03;0.50;;;;;;;;;;5052153;28;20053;-47
2022/06/11 00:10:55;;;;;;;1.42;0.70;;;;;;;;;;5052155;28;20028;-48
2022/06/11 00:13:22;;;;;;;1.05;0.60;;;;;;;;;;5052063;28;20033;-48
2022/06/11 00:15:53;;;;;;;0.85;0.63;;;22.80;70.20;;;;;;5052387;28;20446;-48
2022/06/11 00:18:21;;;;;;;1.10;0.70;;;22.80;70.20;;;;;;5052155;28;20383;-47
2022/06/11 00:20:48;;;;;;;1.02;0.60;;;22.90;69.20;;;;;;5052105;28;20036;-47
2022/06/11 00:23:14;;;;;;;1.08;0.60;;;22.90;66.90;;;;;;5052283;28;20060;-47
2022/06/11 00:25:40;;;;;;;1.27;0.57;;;;;;;;;;5052271;28;20116;-47
2022/06/11 00:28:07;;;;;;;1.25;0.68;;;22.90;67.80;;;;;;5051986;28;20036;-48
2022/06/11 00:30:33;;;;;;;1.52;0.65;;;22.90;69.40;;;;;;5051953;28;20115;-47
2022/06/11 00:32:59;;;;;;;1.00;0.47;;;;;;;;;;5052182;28;20083;-47
2022/06/11 00:35:26;;;;;;;1.40;0.57;;;22.80;70.40;;;;;;5051912;28;20488;-46
2022/06/11 00:37:53;;;;;;;1.05;0.95;;;;;;;;;;5051996;28;20033;-47
2022/06/11 00:40:23;;;;;;;1.00;0.63;;;22.80;70.30;;;;;;5051904;28;20025;-47
2022/06/11 00:42:49;;;;;;;;;;;22.80;70.90;;;;;;5052351;28;20430;-48
2022/06/11 00:45:27;;;;;;;1.73;0.70;;;22.80;64.50;;;;;;5053620;28;19912;-47
2022/06/11 00:48:19;;;;;;;0.93;0.70;;;22.80;70.20;;;;;;5056059;28;20063;-48
2022/06/11 00:51:17;;;;;;;1.15;0.60;;;22.80;70.20;;;;;;5044882;28;20029;-47
2022/06/11 00:53:50;;;;;;;1.42;0.63;;;22.80;69.90;;;;;;5055919;28;20476;-46
2022/06/11 00:56:23;;;;;;;1.00;0.60;;;22.90;69.90;;;;;;5055577;28;20036;-47
2022/06/11 00:58:53;;;;;;;0.80;0.57;;;22.80;70.00;;;;;;5055610;28;20025;-47
2022/06/11 01:01:21;;;;;;;2.03;0.50;;;22.80;70.30;;;;;;5055508;28;20068;-48
2022/06/11 01:03:48;;;;;;;1.70;0.73;;;22.70;69.90;;;;;;5055225;28;20083;-47
2022/06/11 01:06:44;;;;;;;1.27;0.57;;;22.80;64.30;;;;;;5055434;28;20029;-47
2022/06/11 01:09:42;;;;;;;1.10;0.50;;;22.90;64.30;;;;;;5055398;28;20029;-47
2022/06/11 01:12:16;;;;;;;0.65;0.52;;;22.70;64.20;;;;;;5044588;28;20079;-47
2022/06/11 01:14:42;;;;;;;0.68;0.40;;;;;;;;;;5055362;28;20033;-47
2022/06/11 01:17:28;;;;;;;0.73;0.50;;;22.80;64.20;;;;;;5055176;28;20045;-47
2022/06/11 01:20:33;;;;;;;0.68;0.65;;;22.70;64.10;;;;;;5055242;28;20028;-47
2022/06/11 01:23:20;;;;;;;0.90;0.73;;;22.80;64.30;;;;;;4973933;28;20113;-47
2022/06/11 01:25:57;;;;;;;0.93;0.70;;;22.70;64.40;;;;;;5052036;28;20056;-47
2022/06/11 01:28:23;;;;;;;0.50;0.50;;;;;;;;;;5055131;28;20033;-47
2022/06/11 01:31:04;;;;;;;2.20;0.73;;;22.70;63.90;;;;;;5055345;28;20043;-47
2022/06/11 01:33:33;;;;;;;0.73;0.50;;;22.70;63.60;;;;;;5054919;28;20032;-48
2022/06/11 01:36:05;;;;;;;1.42;0.65;;;22.80;63.40;;;;;;5054803;28;20403;-48
2022/06/11 01:38:59;;;;;;;0.80;0.47;;;22.80;63.40;;;;;;5055115;28;20515;-50
2022/06/11 01:41:25;;;;;;;0.90;0.50;;;;;;;;;;5043903;28;20048;-48
2022/06/11 01:43:57;;;;;;;2.08;0.80;;;22.80;69.10;;;;;;5054705;28;20021;-48
2022/06/11 01:46:33;;;;;;;1.63;0.80;;;22.70;63.20;;;;;;5054738;28;20043;-48
2022/06/11 01:49:06;;;;;;;0.75;0.50;;;22.70;68.90;;;;;;5054739;28;20021;-48
2022/06/11 01:51:32;;;;;;;1.35;0.60;;;;;;;;;;5054662;28;20029;-47
2022/06/11 01:54:20;;;;;;;0.75;0.52;;;22.80;62.90;;;;;;5054530;28;20032;-48
2022/06/11 01:57:04;;;;;;;0.80;0.50;;;22.80;63.00;;;;;;5054075;28;20434;-47
2022/06/11 01:59:48;;;;;;;0.40;0.38;;;22.70;62.70;;;;;;5054783;28;20032;-47
2022/06/11 02:02:14;;;;;;;1.13;0.80;;;;;;;;;;5054391;28;20047;-47
2022/06/11 02:04:58;;;;;;;5.80;0.60;;;22.70;62.50;;;;;;5054212;28;20508;-47
2022/06/11 02:07:45;;;;;;;0.77;0.50;;;22.80;62.60;;;;;;5036551;28;20029;-47
2022/06/11 02:10:27;;;;;;;1.35;0.40;;;22.70;62.50;;;;;;5054326;28;20503;-47
2022/06/11 02:13:08;;;;;;;1.40;0.40;;;22.70;68.00;;;;;;5054232;28;20379;-49
2022/06/11 02:16:00;;;;;;;2.22;0.73;;;22.60;62.30;;;;;;5054108;28;20471;-47
2022/06/11 02:18:27;;;;;;;1.17;0.50;;;22.70;65.70;;;;;;5045434;28;20029;-47
2022/06/11 02:21:06;;;;;;;1.20;0.52;;;22.70;62.20;;;;;;5054000;28;20037;-47
2022/06/11 02:23:51;;;;;;;1.40;0.60;;;22.70;62.20;;;;;;5054087;28;20029;-47
2022/06/11 02:26:27;;;;;;;2.25;0.50;;;22.60;62.00;;;;;;5054050;28;20028;-47
2022/06/11 02:28:56;;;;;;;1.30;0.80;;;22.70;67.70;;;;;;5053888;28;20033;-46
2022/06/11 02:31:29;;;;;;;1.50;0.60;;;22.70;67.60;;;;;;5054167;28;20017;-47
2022/06/11 02:33:55;;;;;;;1.40;0.70;;;;;;;;;;5053846;28;20033;-47
2022/06/11 02:36:28;;;;;;;1.27;0.50;;;22.70;61.90;;;;;;5053966;28;20047;-47
2022/06/11 02:38:56;;;;;;;1.08;0.57;;;22.70;67.20;;;;;;5053725;28;20031;-47
2022/06/11 02:41:31;;;;;;;0.90;0.57;;;22.60;61.50;;;;;;5053769;28;20035;-47
2022/06/11 02:43:57;;;;;;;1.83;0.50;;;22.30;64.60;;;;;;5053706;28;20021;-48
2022/06/11 02:46:43;;;;;;;1.65;0.85;;;;;;;;;;5053926;28;20383;-47
2022/06/11 02:49:23;;;;;;;0.75;0.50;;;22.60;67.40;;;;;;5053557;28;20500;-47
2022/06/11 02:51:51;;;;;;;1.02;0.60;;;22.70;67.50;;;;;;5053519;28;20056;-47
2022/06/11 02:54:17;;;;;;;1.33;0.70;;;;;;;;;;5053358;28;20032;-47
2022/06/11 02:56:43;;;;;;;0.90;0.50;;;22.60;66.20;;;;;;5053227;28;20569;-47
2022/06/11 02:59:10;;;;;;;0.88;0.50;;;22.60;65.90;;;;;;5053298;28;20025;-47
2022/06/11 03:01:36;;;;;;;2.45;0.63;;;;;;;;;;5053525;28;20021;-47
2022/06/11 03:04:02;;;;;;;2.72;0.70;;;;;;;;;;5053063;28;20124;-47
2022/06/11 03:06:29;;;;;;;1.33;0.57;;;;;;;;;;5053238;28;20047;-47
2022/06/11 03:08:56;;;;;;;1.77;0.70;;;22.50;67.40;;;;;;5052115;28;20029;-48
2022/06/11 03:11:23;;;;;;;2.58;0.80;;;;;;;;;;5053074;28;20039;-47
2022/06/11 03:13:49;;;;;;;1.50;0.80;;;;;;;;;;5053057;28;20029;-47
2022/06/11 03:16:15;;;;;;;1.92;0.93;;;;;;;;;;5052841;28;20125;-47
2022/06/11 03:18:41;;;;;;;3.13;0.82;;;22.50;66.80;;;;;;5053001;28;20381;-47
2022/06/11 03:21:07;;;;;;;3.58;0.75;;;22.60;67.40;;;;;;5052985;28;20033;-47
2022/06/11 03:23:33;;;;;;;3.22;0.70;;;;;;;;;;5053225;28;20395;-47
2022/06/11 03:26:01;;;;;;;1.83;0.73;;;22.50;67.50;;;;;;5052847;28;20033;-47
2022/06/11 03:28:28;;;;;;;3.13;0.70;;;22.60;67.70;;;;;;5053029;28;20108;-47
2022/06/11 03:30:54;;;;;;;1.25;0.77;;;22.50;65.70;;;;;;5052748;28;20036;-48
2022/06/11 03:33:21;;;;;;;1.35;0.60;;;;;;;;;;5052717;28;20135;-47
2022/06/11 03:35:49;;;;;;;3.38;0.88;;;22.60;67.70;;;;;;5052571;28;20414;-47
2022/06/11 03:38:16;;;;;;;2.03;0.70;;;22.60;67.80;;;;;;5052637;28;20028;-47
2022/06/11 03:40:42;;;;;;;2.25;0.57;;;;;;;;;;5052687;28;20079;-47
2022/06/11 03:43:08;;;;;;;3.15;0.82;;;;;;;;;;5052755;28;20033;-47
2022/06/11 03:45:35;;;;;;;2.67;0.88;;;22.60;67.30;;;;;;5052497;28;20425;-47
2022/06/11 03:48:02;;;;;;;3.00;0.68;;;;;;;;;;5052442;28;20025;-47
2022/06/11 03:50:32;;;;;;;1.15;0.70;;;22.50;67.40;;;;;;5052312;28;20514;-47
2022/06/11 03:52:59;;;;;;;4.57;1.13;;;22.50;65.00;;;;;;5052459;28;20029;-47
2022/06/11 03:55:25;;;;;;;1.75;0.90;;;;;;;;;;5052237;28;20053;-47
2022/06/11 03:57:51;;;;;;;2.60;1.13;;;;;;;;;;5052621;28;20029;-48
2022/06/11 04:01:14;;;;;;;2.97;0.70;;;22.40;67.30;;;;;;5052553;28;20108;-47
2022/06/11 04:03:07;;;;;;;2.95;1.23;;;;;;;;;;5051845;28;20048;-48
2022/06/11 04:05:33;;;;;;;1.92;0.57;;;;;;;;;;5052180;28;20116;-47
2022/06/11 04:07:59;;;;;;;3.58;0.95;;;;;;;;;;5052191;28;20033;-47
2022/06/11 04:10:25;;;;;;;1.75;0.70;;;;;;;;;;5052126;28;20025;-47
2022/06/11 04:12:52;;;;;;;2.75;1.23;;;;;;;;;;5052158;28;20464;-47
2022/06/11 04:15:18;;;;;;;3.03;0.88;;;;;;;;;;5052101;28;20044;-48
2022/06/11 04:17:44;;;;;;;2.45;0.77;;;;;;;;;;5052065;28;20024;-47
2022/06/11 04:20:12;;;;;;;3.08;0.80;;;22.50;67.40;;;;;;5055328;28;20032;-47
2022/06/11 04:22:38;;;;;;;2.05;0.90;;;;;;;;;;5058673;28;20423;-47
2022/06/11 04:25:05;;;;;;;2.47;0.85;;;;;;;;;;5058938;28;20029;-47
2022/06/11 04:27:32;;;;;;;3.00;0.80;;;22.40;64.70;;;;;;5058638;28;20029;-47
2022/06/11 04:29:58;;;;;;;3.38;1.25;;;22.50;65.50;;;;;;5058623;28;20033;-48
2022/06/11 04:32:24;;;;;;;3.22;0.95;;;;;;;;;;5058565;28;20036;-47
2022/06/11 04:34:51;;;;;;;5.78;0.90;;;22.50;67.40;;;;;;5058745;28;20479;-49
2022/06/11 04:37:20;;;;;;;3.95;1.02;;;22.50;67.40;;;;;;5058494;28;20059;-47
2022/06/11 04:39:49;;;;;;;1.55;0.70;;;22.40;67.40;;;;;;5058537;28;20028;-48
2022/06/11 04:42:16;;;;;;;3.47;1.00;;;22.40;64.30;;;;;;5058543;28;20029;-47
2022/06/11 04:44:43;;;;;;;2.67;0.70;;;22.50;67.50;;;;;;5058531;28;20108;-46
2022/06/11 04:47:13;;;;;;;1.85;0.90;;;22.50;67.30;;;;;;5058518;28;20029;-48
2022/06/11 04:49:40;;;;;;;2.33;0.88;;;;;;;;;;5058507;28;20040;-47
2022/06/11 04:52:06;;;;;;;4.10;1.20;;;;;;;;;;5058558;28;20599;-49
2022/06/11 04:54:32;;;;;;;5.05;1.13;;;;;;;;;;5058374;28;20029;-48
2022/06/11 04:56:58;;;;;;;2.80;0.90;;;;;;;;;;5058348;28;20502;-47
2022/06/11 04:59:24;;;;;;;3.90;1.38;;;;;;;;;;5058350;28;20029;-47
2022/06/11 05:01:50;;;;;;;5.68;1.45;;;;;;;;;;5058278;28;20036;-48
2022/06/11 05:04:16;;;;;;;3.40;1.33;;;22.40;64.50;;;;;;5058186;28;20049;-47
2022/06/11 05:06:45;;;;;;;1.90;1.02;;;22.40;67.20;;;;;;5058264;28;20029;-47
2022/06/11 05:09:14;;;;;;;2.78;1.05;;;22.50;67.30;;;;;;5058420;28;20423;-47
2022/06/11 05:11:40;;;;;;;3.17;1.52;;;;;;;;;;5058620;28;20418;-48
2022/06/11 05:14:07;;;;;;;4.00;1.40;;;;;;;;;;5058300;28;20028;-47
2022/06/11 05:16:34;;;;;;;4.82;1.30;;;22.50;67.10;;;;;;5058248;28;20037;-47
2022/06/11 05:19:00;;;;;;;3.20;1.02;;;;;;;;;;5058258;28;20021;-48
2022/06/11 05:21:27;;;;;;;5.47;1.10;;;22.60;64.80;;;;;;5058190;28;20039;-46
2022/06/11 05:23:53;;;;;;;1.95;1.17;;;;;;;;;;5058387;28;20116;-48
2022/06/11 05:26:32;;;;;;;6.10;1.10;;;22.40;61.50;;;;;;5058212;28;20025;-49
2022/06/11 05:28:59;;;;;;;4.22;1.35;;;;;;;;;;5058206;28;20020;-47
2022/06/11 05:31:25;;;;;;;3.90;1.23;;;;;;;;;;5056177;28;20431;-48
2022/06/11 05:33:51;;;;;;;4.40;1.25;;;;;;;;;;5054892;28;20039;-47
2022/06/11 05:36:19;;;;;;;2.60;1.13;;;;;;;;;;5054833;28;20045;-46
2022/06/11 05:38:45;;;;;;;3.83;0.90;;;;;;;;;;5055136;28;20025;-46
2022/06/11 05:41:11;;;;;;;4.32;1.33;;;;;;;;;;5055081;28;20024;-49
2022/06/11 05:43:37;;;;;;;4.10;1.30;;;;;;;;;;5055010;28;20052;-47
2022/06/11 05:46:10;;;;;;;3.88;1.25;;;22.40;67.10;;;;;;5054683;28;20134;-46
2022/06/11 05:48:40;;;;;;;3.17;1.17;;;22.50;67.10;;;;;;5054782;28;20511;-48
2022/06/11 05:51:07;;;;;;;;;;;22.40;67.90;;;;;;5055074;28;20519;-47
2022/06/11 05:53:35;;;;;;;4.22;1.40;;;22.50;67.10;;;;;;5054546;28;19987;-47
2022/06/11 05:56:03;;;;;;;5.00;1.40;;;22.50;67.00;;;;;;5054382;28;20138;-47
2022/06/11 05:58:34;;;;;;;3.80;1.33;;;22.50;66.90;;;;;;5020318;28;20082;-47
2022/06/11 06:01:01;;;;;;;4.40;1.48;;;22.50;66.80;;;;;;5054430;28;20176;-48
2022/06/11 06:03:27;;;;;;;2.75;1.20;;;;;;;;;;5054112;28;20048;-47
2022/06/11 06:05:53;;;;;;;5.43;1.30;;;;;;;;;;5054337;28;20032;-48
2022/06/11 06:08:19;;;;;;;4.57;1.35;;;;;;;;;;5054275;28;20029;-47
2022/06/11 06:10:45;;;;;;;4.63;1.50;;;;;;;;;;5054263;28;20087;-47
2022/06/11 06:15:56;;;;;;;4.75;1.50;;;;;;;;;;5054121;28;20044;-47
2022/06/11 06:18:22;;;;;;;6.75;1.95;;;22.40;66.80;;;;;;5054119;28;20543;-47
2022/06/11 06:20:48;;;;;;;4.25;1.40;;;;;;;;;;5054118;28;20044;-47
2022/06/11 06:23:15;;;;;;;6.70;1.58;;;;;;;;;;5054047;28;20040;-48
2022/06/11 06:25:41;;;;;;;5.43;1.60;;;;;;;;;;5054060;28;20021;-48
2022/06/11 06:28:07;;;;;;;4.88;1.30;;;;;;;;;;5053902;28;20029;-48
2022/06/11 06:30:33;;;;;;;4.65;1.20;;;;;;;;;;5053801;28;20029;-48
2022/06/11 06:32:59;;;;;;;4.10;1.27;;;;;;;;;;5053799;28;20557;-48
2022/06/11 06:35:25;;;;;;;4.03;1.50;;;;;;;;;;5053907;28;20071;-47
2022/06/11 06:37:51;;;;;;;5.65;1.60;;;;;;;;;;5053713;28;20068;-48
2022/06/11 06:40:17;;;;;;;6.53;1.58;;;;;;;;;;5053637;28;20036;-47
2022/06/11 06:42:43;;;;;;;3.45;1.35;;;;;;;;;;5053543;28;20106;-46
2022/06/11 06:45:09;;;;;;;4.93;1.40;;;;;;;;;;5053540;28;20032;-47
2022/06/11 06:47:35;;;;;;;3.30;1.20;;;;;;;;;;5053581;28;20036;-47
2022/06/11 06:50:02;;;;;;;6.85;1.77;;;;;;;;;;5053439;28;20029;-47
2022/06/11 06:52:28;;;;;;;4.10;1.55;;;;;;;;;;5053399;28;20021;-47
2022/06/11 06:54:54;;;;;;;3.63;1.40;;;;;;;;;;5053420;28;20033;-47
2022/06/11 06:57:20;;;;;;;6.07;1.52;;;;;;;;;;5053234;28;20076;-46
2022/06/11 06:59:46;;;;;;;3.03;1.20;;;;;;;;;;5053307;28;20056;-47
2022/06/11 07:02:13;;;;;;;4.07;1.48;;;;;;;;;;5053252;28;20480;-45
2022/06/11 07:04:39;;;;;;;4.50;1.30;;;;;;;;;;5053064;28;20073;-45
2022/06/11 07:07:05;;;;;;;3.58;1.58;;;;;;;;;;5053138;28;20467;-46
2022/06/11 07:09:32;;;;;;;6.45;1.95;;;;;;;;;;5053378;28;20485;-45
2022/06/11 07:11:58;;;;;;;3.97;1.35;;;;;;;;;;5053072;28;20033;-47
2022/06/11 07:14:24;;;;;;;3.75;1.15;;;;;;;;;;5053095;28;20119;-45
2022/06/11 07:16:53;;;;;;;4.40;1.40;;;22.50;66.50;;;;;;5052936;28;20187;-45
2022/06/11 07:19:32;;;;;;;4.90;1.50;;;22.40;66.40;;;;;;5052911;28;20460;-46
2022/06/11 07:22:12;;;;;;;3.20;1.50;;;22.50;66.60;;;;;;5053050;28;20476;-45
2022/06/11 07:24:41;;;;;;;5.03;1.35;;;22.60;67.20;;;;;;5053131;28;20443;-45
2022/06/11 07:27:11;;;;;;;5.68;1.50;;;22.50;66.90;;;;;;5052761;28;20033;-45
2022/06/11 07:29:43;;;;;;;4.18;1.50;;;22.50;66.70;;;;;;5053098;28;20031;-46
2022/06/11 07:32:13;;;;;;;3.60;1.42;;;22.50;66.60;;;;;;5052786;28;20110;-45
2022/06/11 07:34:40;;;;;;;7.28;1.70;;;22.50;66.20;;;;;;5053001;28;20154;-46
2022/06/11 07:37:06;;;;;;;7.80;1.67;;;;;;;;;;5052583;28;20033;-45
2022/06/11 07:39:32;;;;;;;7.13;1.77;;;;;;;;;;5052707;28;20103;-45
2022/06/11 07:41:58;;;;;;;6.22;1.70;;;22.60;63.20;;;;;;5052488;28;20036;-45
2022/06/11 07:44:24;;;;;;;3.85;1.73;;;;;;;;;;5052488;28;20029;-45
2022/06/11 07:46:50;;;;;;;6.03;1.60;;;;;;;;;;5052350;28;20147;-46
2022/06/11 07:49:16;;;;;;;5.90;2.33;;;;;;;;;;5052229;28;20480;-46
2022/06/11 07:51:43;;;;;;;4.97;1.70;;;;;;;;;;5052489;28;20036;-45
2022/06/11 07:54:09;;;;;;;7.88;2.25;;;;;;;;;;5051995;28;20057;-46
2022/06/11 07:56:37;;;;;;;9.07;2.13;;;;;;;;;;5052313;28;20056;-46
2022/06/11 07:59:03;;;;;;;21.83;2.33;;;;;;;;;;5052508;28;20056;-45
2022/06/11 08:01:29;;;;;;;7.20;1.90;;;;;;;;;;5052004;28;20033;-45
2022/06/11 08:03:55;;;;;;;6.20;2.17;;;;;;;;;;5051852;28;20128;-45
2022/06/11 08:06:22;;;;;;;7.40;2.05;;;;;;;;;;5052168;28;20439;-45
2022/06/11 08:08:49;;;;;;;7.97;2.33;;;;;;;;;;5052018;28;20029;-45
2022/06/11 08:11:15;;;;;;;7.90;2.10;;;;;;;;;;5051959;28;20522;-45
2022/06/11 08:13:41;;;;;;;8.27;2.10;;;;;;;;;;5051931;28;20104;-45
2022/06/11 08:16:07;;;;;;;14.93;2.15;;;;;;;;;;5051855;28;20140;-47
2022/06/11 08:18:33;;;;;;;8.57;2.10;;;;;;;;;;5051805;28;20507;-46
2022/06/11 08:21:00;;;;;;;9.07;2.20;;;;;;;;;;5034013;28;20424;-47
2022/06/11 08:23:26;;;;;;;8.13;2.03;;;;;;;;;;5051783;28;20024;-47
2022/06/11 08:25:53;;;;;;;8.10;2.10;;;22.80;64.60;;;;;;5051782;28;20491;-47
2022/06/11 08:28:19;;;;;;;10.48;2.25;;;;;;;;;;5051678;28;20029;-46
2022/06/11 08:30:46;;;;;;;9.35;2.08;;;22.80;64.70;;;;;;5052021;28;20029;-46
2022/06/11 08:33:12;;;;;;;8.45;2.15;;;22.30;94.40;;;;;;5051758;28;20034;-46
2022/06/11 08:35:39;;;;;;;8.45;1.85;;;;;;;;;;5052032;28;20466;-47
2022/06/11 08:38:05;;;;;;;8.77;1.58;;;23.10;94.90;;;;;;5051681;28;20031;-46
2022/06/11 08:40:34;;;;;;;8.43;1.95;;;22.90;64.70;;;;;;5051462;28;20029;-47
2022/06/11 08:43:00;;;;;;;7.70;2.40;;;;;;;;;;5051986;28;20021;-46
2022/06/11 08:45:41;;;;;;;6.97;1.80;;;22.70;60.40;;;;;;5051587;28;20451;-47
2022/06/11 08:48:36;;;;;;;7.90;1.80;;;23.00;58.80;;;;;;5051656;28;20047;-47
2022/06/11 08:51:27;;;;;;;10.40;2.20;;;23.30;93.40;;;;;;5049166;28;20082;-47
2022/06/11 08:53:58;;;;;;;8.88;1.90;;;23.00;63.80;;;;;;5042664;28;20053;-47
2022/06/11 08:56:38;;;;;;;;;;;23.00;64.70;;;;;;5052156;28;20033;-48
2022/06/11 08:59:09;;;;;;;;;;;23.00;59.30;;;;;;5052029;28;19962;-49
2022/06/11 09:01:47;;;;;;;6.80;2.30;;;23.50;69.60;;;;;;5051410;28;19905;-47
2022/06/11 09:04:47;;;;;;;6.70;2.03;;;23.50;90.70;;;;;;5051309;28;20044;-48
2022/06/11 09:07:36;;;;;;;6.30;2.10;;;23.40;59.10;;;;;;5053449;28;20430;-47
2022/06/11 09:10:09;;;;;;;8.18;1.90;;;23.80;94.60;;;;;;5055648;28;20434;-46
2022/06/11 09:12:55;;;;;;;4.97;1.52;;;23.50;58.40;;;;;;5055557;28;20441;-49
2022/06/11 09:15:46;;;;;;;5.93;1.80;;;23.60;58.70;;;;;;5037237;28;20071;-48
2022/06/11 09:18:17;;;;;;;4.55;1.63;;;23.70;58.40;;;;;;5054775;28;20124;-48
2022/06/11 09:20:55;;;;;;;6.38;1.90;;;23.80;57.90;;;;;;5055268;28;20442;-47
2022/06/11 09:23:49;;;;;;;7.97;1.90;;;23.80;57.70;;;;;;5055229;28;20444;-49
2022/06/11 09:26:41;;;;;;;5.88;2.28;;;23.90;57.60;;;;;;5054938;28;20097;-48
2022/06/11 09:29:11;;;;;;;11.35;2.00;;;23.90;57.70;;;;;;5054996;28;20064;-48
2022/06/11 09:31:44;;;;;;;;;;;23.80;63.40;;;;;;5055547;28;20013;-49
2022/06/11 09:34:10;;;;;;;7.82;2.08;;;;;;;;;;5054846;28;19909;-48
2022/06/11 09:36:45;;;;;;;5.70;1.73;;;24.10;57.30;;;;;;5054674;28;20044;-47
2022/06/11 09:39:49;;;;;;;5.53;1.60;;;23.80;57.00;;;;;;5054754;28;20098;-47
2022/06/11 09:42:36;;;;;;;4.03;1.15;;;24.30;58.20;;;;;;5023875;28;20048;-48
2022/06/11 09:45:10;;;;;;;4.78;1.63;;;24.60;93.50;;;;;;5054601;28;20033;-50
2022/06/11 09:48:00;;;;;;;6.63;2.15;;;24.50;93.50;;;;;;5055019;28;20029;-48
2022/06/11 09:50:38;;;;;;;8.02;2.35;;;24.40;61.10;;;;;;5054662;28;20047;-49
2022/06/11 09:53:04;;;;;;;7.72;1.77;;;;;;;;;;5054576;28;20021;-49
2022/06/11 09:55:52;;;;;;;5.35;1.55;;;24.50;61.00;;;;;;5054682;28;20383;-48
2022/06/11 09:58:33;;;;;;;6.22;1.70;;;24.40;93.00;;;;;;5054522;28;20029;-47
2022/06/11 10:01:10;;;;;;;5.38;1.60;;;24.60;60.70;;;;;;5054451;28;20033;-49
2022/06/11 10:03:50;;;;;;;9.13;1.95;;;24.30;93.00;;;;;;5054173;28;20069;-47
2022/06/11 10:06:29;;;;;;;5.55;1.83;;;24.70;61.30;;;;;;5054444;28;20045;-48
2022/06/11 10:08:58;;;;;;;9.00;2.00;;;24.30;93.00;;;;;;5054510;28;20102;-49
2022/06/11 10:12:03;;;;;;;9.38;1.48;;;24.70;92.70;;;;;;5054203;28;20028;-48
2022/06/11 10:14:29;;;;;;;6.03;1.90;;;;;;;;;;5054082;28;20029;-47
2022/06/11 10:17:04;;;;;;;5.75;1.80;;;24.60;59.30;;;;;;5053670;28;20498;-48
2022/06/11 10:20:08;;;;;;;5.57;2.03;;;24.60;87.70;;;;;;5053957;28;20029;-50
2022/06/11 10:22:55;;;;;;;6.63;1.98;;;24.30;92.00;;;;;;5054349;28;20120;-49
2022/06/11 10:25:35;;;;;;;4.47;1.20;;;24.60;54.70;;;;;;5054090;28;20044;-48
2022/06/11 10:28:01;;;;;;;9.45;2.30;;;;;;;;;;5054214;28;20052;-50
2022/06/11 10:30:39;;;;;;;5.75;1.80;;;24.50;59.50;;;;;;5053715;28;20423;-48
2022/06/11 10:33:14;;;;;;;6.03;1.70;;;24.50;59.50;;;;;;5053585;28;20075;-48
2022/06/11 10:35:47;;;;;;;7.43;1.98;;;24.50;59.50;;;;;;5053488;28;20107;-48
2022/06/11 10:38:28;;;;;;;5.80;1.90;;;24.50;54.70;;;;;;5053541;28;20040;-48
2022/06/11 10:40:54;;;;;;;;;;;24.50;60.10;;;;;;5053917;28;20074;-48
2022/06/11 10:43:46;;;;;;;7.13;2.05;;;24.80;92.70;;;;;;5053742;28;20326;-48
2022/06/11 10:46:13;;;;;;;5.50;1.83;;;24.40;56.90;;;;;;5053428;28;20064;-48
2022/06/11 10:48:40;;;;;;;7.38;2.05;;;24.40;57.90;;;;;;5053256;28;20029;-48
2022/06/11 10:51:21;;;;;;;6.45;1.65;;;24.30;59.20;;;;;;5053246;28;20399;-48
2022/06/11 10:53:58;;;;;;;9.23;2.00;;;24.30;54.50;;;;;;5053258;28;20857;-49
2022/06/11 10:56:44;;;;;;;6.30;1.98;;;24.50;67.70;;;;;;5053378;28;20041;-52
2022/06/11 10:59:48;;;;;;;8.68;2.20;;;24.30;55.30;;;;;;5053122;28;20487;-49
2022/06/11 11:02:39;;;;;;;6.97;2.00;;;24.40;54.60;;;;;;5053119;28;20112;-52
2022/06/11 11:05:11;;;;;;;7.82;2.50;;;24.40;59.40;;;;;;5052957;28;20546;-48
2022/06/11 11:07:52;;;;;;;8.57;2.03;;;24.40;54.60;;;;;;5053049;28;20033;-48
2022/06/11 11:10:36;;;;;;;8.13;1.77;;;24.70;92.50;;;;;;5053187;28;20033;-48
2022/06/11 11:13:21;;;;;;;6.03;1.67;;;24.70;92.50;;;;;;5052987;28;20037;-49
2022/06/11 11:15:57;;;;;;;9.93;2.42;;;24.30;60.20;;;;;;5052939;28;20025;-49
2022/06/11 11:18:33;;;;;;;12.73;2.38;;;24.70;61.20;;;;;;5053047;28;20040;-49
2022/06/11 11:20:59;;;;;;;8.05;2.25;;;24.00;93.10;;;;;;5052960;28;20625;-49
2022/06/11 11:23:40;;;;;;;10.35;2.20;;;24.50;56.70;;;;;;5052829;28;20046;-48
2022/06/11 11:26:06;;;;;;;11.00;2.17;;;;;;;;;;5052706;28;20029;-50
2022/06/11 11:28:59;;;;;;;8.10;2.10;;;24.70;93.30;;;;;;5052669;28;20029;-49
2022/06/11 11:31:39;;;;;;;7.93;2.13;;;24.00;58.80;;;;;;5052786;28;20365;-48
2022/06/11 11:34:10;;;;;;;15.63;2.05;;;24.50;53.90;;;;;;5052960;28;20060;-48
2022/06/11 11:36:39;;;;;;;7.85;2.20;;;24.50;53.90;;;;;;5052609;28;20124;-49
2022/06/11 11:39:17;;;;;;;10.35;2.00;;;24.40;54.30;;;;;;5052696;28;20102;-48
2022/06/11 11:42:09;;;;;;;7.60;1.95;;;24.80;92.40;;;;;;5052551;28;20472;-48
2022/06/11 11:44:49;;;;;;;9.73;2.88;;;24.80;60.40;;;;;;5052586;28;20134;-48
2022/06/11 11:47:24;;;;;;;7.60;1.77;;;24.50;59.20;;;;;;5052423;28;20479;-48
2022/06/11 11:49:55;;;;;;;5.97;1.50;;;24.10;92.20;;;;;;5052506;28;20017;-48
2022/06/11 11:52:22;;;;;;;;;;;24.50;60.20;;;;;;5053082;28;20017;-48
2022/06/11 11:55:00;;;;;;;11.52;2.20;;;24.60;90.00;;;;;;5052379;28;19904;-48
2022/06/11 11:57:31;;;;;;;8.35;1.65;;;24.60;58.70;;;;;;5052529;28;20123;-48
2022/06/11 11:59:58;;;;;;;9.65;2.22;;;24.20;91.90;;;;;;5052479;28;20017;-47
2022/06/11 12:02:30;;;;;;;8.15;2.10;;;24.60;58.40;;;;;;5052013;28;20435;-48
2022/06/11 12:04:56;;;;;;;8.57;2.20;;;;;;;;;;5051865;28;20049;-48
2022/06/11 12:07:32;;;;;;;4.70;2.08;;;24.90;91.90;;;;;;5052080;28;20055;-48
2022/06/11 12:10:27;;;;;;;6.63;1.98;;;25.00;92.00;;;;;;5052275;28;20029;-47
2022/06/11 12:12:56;;;;;;;10.90;2.03;;;24.70;58.20;;;;;;5052146;28;20033;-47
2022/06/11 12:15:31;;;;;;;7.90;2.03;;;25.00;91.90;;;;;;5052065;28;20025;-46
2022/06/11 12:18:15;;;;;;;8.75;2.00;;;24.70;53.20;;;;;;5052104;28;20546;-49
2022/06/11 12:20:49;;;;;;;6.88;1.50;;;24.90;92.00;;;;;;5052110;28;20032;-49
2022/06/11 12:23:24;;;;;;;8.93;1.73;;;24.70;58.60;;;;;;5052107;28;20036;-48
2022/06/11 12:26:41;;;;;;;6.85;1.75;;;25.00;89.60;;;;;;5052076;28;20430;-48
2022/06/11 12:29:15;;;;;;;6.43;2.05;;;25.00;92.40;;;;;;5007710;28;20048;-47
2022/06/11 12:31:41;;;;;;;10.70;1.73;;;24.80;92.30;;;;;;5051955;28;20078;-48
2022/06/11 12:34:19;;;;;;;6.78;1.35;;;24.70;53.90;;;;;;5052010;28;20033;-48
2022/06/11 12:37:06;;;;;;;5.70;1.60;;;25.00;92.40;;;;;;5051897;28;20041;-47
2022/06/11 12:39:32;;;;;;;5.75;1.65;;;;;;;;;;5051888;28;20057;-48
2022/06/11 12:42:21;;;;;;;6.20;1.77;;;24.90;91.60;;;;;;5054908;28;20067;-47
2022/06/11 12:45:23;;;;;;;6.53;1.80;;;24.70;54.00;;;;;;5056171;28;20434;-50
2022/06/11 12:48:15;;;;;;;7.43;1.67;;;24.90;54.00;;;;;;5056040;28;20626;-48
2022/06/11 12:50:42;;;;;;;7.28;1.83;;;;;;;;;;5055835;28;20037;-48
2022/06/11 12:53:48;;;;;;;4.75;1.40;;;24.90;71.30;;;;;;5055690;28;20064;-49
2022/06/11 12:56:25;;;;;;;5.57;1.52;;;25.10;83.60;;;;;;4974262;28;20050;-48
2022/06/11 12:58:57;;;;;;;7.32;2.00;;;24.70;53.80;;;;;;4974431;28;20072;-48
2022/06/11 13:01:32;;;;;;;6.25;2.10;;;24.80;92.00;;;;;;5022895;28;20109;-47
2022/06/11 13:04:10;;;;;;;8.50;1.92;;;24.70;53.10;;;;;;5055384;28;20052;-48
2022/06/11 13:07:01;;;;;;;11.23;2.00;;;24.70;91.50;;;;;;5055405;28;20594;-48
2022/06/11 13:09:58;;;;;;;7.55;2.08;;;24.70;52.10;;;;;;5055490;28;20028;-49
2022/06/11 13:12:53;;;;;;;11.23;2.60;;;25.10;91.30;;;;;;5055474;28;20029;-47
2022/06/11 13:15:50;;;;;;;4.18;1.67;;;24.60;91.20;;;;;;5037811;28;20049;-49
2022/06/11 13:18:37;;;;;;;19.25;3.22;;;24.40;90.70;;;;;;5055187;28;20040;-50
2022/06/11 13:21:31;;;;;;;14.10;2.85;;;24.80;50.90;;;;;;5055305;28;20044;-48
2022/06/11 13:24:05;;;;;;;12.10;2.75;;;24.40;90.70;;;;;;5055398;28;20020;-48
2022/06/11 13:26:54;;;;;;;9.07;2.22;;;24.60;50.60;;;;;;5054954;28;20029;-49
2022/06/11 13:29:43;;;;;;;12.35;2.50;;;25.10;90.60;;;;;;5055070;28;20032;-49
2022/06/11 13:32:24;;;;;;;12.73;3.05;;;24.60;54.80;;;;;;5055285;28;20037;-49
2022/06/11 13:34:55;;;;;;;;;;;24.60;50.70;;;;;;5055354;28;20033;-49
2022/06/11 13:37:43;;;;;;;11.23;2.47;;;24.60;49.90;;;;;;5054675;28;20294;-49
2022/06/11 13:40:32;;;;;;;10.38;2.70;;;24.50;49.90;;;;;;5054957;28;20105;-48
2022/06/11 13:43:30;;;;;;;7.85;2.63;;;24.60;90.20;;;;;;5054995;28;20111;-48
2022/06/11 13:46:14;;;;;;;8.63;2.58;;;24.70;90.40;;;;;;5054969;28;20390;-48
2022/06/11 13:49:08;;;;;;;12.68;2.63;;;24.70;90.30;;;;;;5055103;28;20086;-47
2022/06/11 13:51:37;;;;;;;10.77;2.60;;;24.50;54.40;;;;;;5054663;28;20021;-46
2022/06/11 13:57:08;;;;;;;11.13;2.67;;;;;;;;;;5054638;28;20044;-47
2022/06/11 13:59:50;;;;;;;12.73;2.42;;;25.00;49.60;;;;;;5054543;28;20021;-47
2022/06/11 14:02:36;;;;;;;14.25;3.33;;;24.50;49.20;;;;;;5054448;28;20021;-47
2022/06/11 14:05:06;;;;;;;11.02;2.65;;;24.90;90.10;;;;;;5036400;28;20065;-48